sensor_id;sensor_type;location;lat;lon;timestamp;P1;durP1;ratioP1;P2;durP2;ratioP2
77701;SDS011;66868;42.708;23.404;2023-05-10T00:01:22;4.28;;;4.07;;
77701;SDS011;66868;42.708;23.404;2023-05-10T00:03:48;3.97;;;3.78;;
77701;SDS011;66868;42.708;23.404;2023-05-10T00:06:13;3.42;;;3.22;;
77701;SDS011;66868;42.708;23.404;2023-05-10T00:08:39;2.95;;;2.85;;
77701;SDS011;66868;42.708;23.404;2023-05-10T00:11:04;2.80;;;2.60;;
77701;SDS011;66868;42.708;23.404;2023-05-10T00:13:30;2.65;;;2.55;;
77701;SDS011;66868;42.708;23.404;2023-05-10T00:15:55;2.75;;;2.53;;
77701;SDS011;66868;42.708;23.404;2023-05-10T00:18:21;3.17;;;2.88;;
77701;SDS011;66868;42.708;23.404;2023-05-10T00:20:46;3.15;;;2.97;;
77701;SDS011;66868;42.708;23.404;2023-05-10T00:23:12;4.03;;;3.80;;
77701;SDS011;66868;42.708;23.404;2023-05-10T00:25:37;3.65;;;3.50;;
77701;SDS011;66868;42.708;23.404;2023-05-10T00:28:02;4.78;;;4.55;;
77701;SDS011;66868;42.708;23.404;2023-05-10T00:30:28;5.50;;;4.93;;
77701;SDS011;66868;42.708;23.404;2023-05-10T00:32:53;5.70;;;5.40;;
77701;SDS011;66868;42.708;23.404;2023-05-10T00:35:19;6.53;;;6.13;;
77701;SDS011;66868;42.708;23.404;2023-05-10T00:37:44;6.95;;;6.53;;
77701;SDS011;66868;42.708;23.404;2023-05-10T00:40:10;7.55;;;7.05;;
77701;SDS011;66868;42.708;23.404;2023-05-10T00:42:36;7.03;;;6.38;;
77701;SDS011;66868;42.708;23.404;2023-05-10T00:45:01;7.97;;;7.28;;
77701;SDS011;66868;42.708;23.404;2023-05-10T00:47:27;7.78;;;7.28;;
77701;SDS011;66868;42.708;23.404;2023-05-10T00:49:52;8.02;;;7.28;;
77701;SDS011;66868;42.708;23.404;2023-05-10T00:52:18;7.78;;;7.13;;
77701;SDS011;66868;42.708;23.404;2023-05-10T00:54:44;8.60;;;8.00;;
77701;SDS011;66868;42.708;23.404;2023-05-10T00:57:09;7.97;;;7.38;;
77701;SDS011;66868;42.708;23.404;2023-05-10T00:59:35;7.53;;;7.05;;
77701;SDS011;66868;42.708;23.404;2023-05-10T01:02:01;8.63;;;7.82;;
77701;SDS011;66868;42.708;23.404;2023-05-10T01:04:27;8.00;;;7.40;;
77701;SDS011;66868;42.708;23.404;2023-05-10T01:06:53;8.05;;;7.45;;
77701;SDS011;66868;42.708;23.404;2023-05-10T01:09:19;8.25;;;7.63;;
77701;SDS011;66868;42.708;23.404;2023-05-10T01:11:46;8.35;;;7.65;;
77701;SDS011;66868;42.708;23.404;2023-05-10T01:14:12;8.52;;;7.88;;
77701;SDS011;66868;42.708;23.404;2023-05-10T01:16:38;8.85;;;7.82;;
77701;SDS011;66868;42.708;23.404;2023-05-10T01:19:27;8.30;;;7.60;;
77701;SDS011;66868;42.708;23.404;2023-05-10T01:33:24;6.93;;;6.38;;
77701;SDS011;66868;42.708;23.404;2023-05-10T01:39:09;6.13;;;5.80;;
77701;SDS011;66868;42.708;23.404;2023-05-10T01:44:20;5.70;;;5.40;;
77701;SDS011;66868;42.708;23.404;2023-05-10T01:47:14;6.32;;;5.78;;
77701;SDS011;66868;42.708;23.404;2023-05-10T01:49:52;5.40;;;5.10;;
77701;SDS011;66868;42.708;23.404;2023-05-10T01:52:22;5.78;;;5.50;;
77701;SDS011;66868;42.708;23.404;2023-05-10T01:55:13;6.03;;;5.63;;
77701;SDS011;66868;42.708;23.404;2023-05-10T01:57:42;5.95;;;5.55;;
77701;SDS011;66868;42.708;23.404;2023-05-10T02:00:09;6.20;;;5.78;;
77701;SDS011;66868;42.708;23.404;2023-05-10T02:02:37;5.65;;;5.25;;
77701;SDS011;66868;42.708;23.404;2023-05-10T02:05:07;6.00;;;5.70;;
77701;SDS011;66868;42.708;23.404;2023-05-10T02:07:35;5.15;;;4.93;;
77701;SDS011;66868;42.708;23.404;2023-05-10T02:10:02;5.70;;;5.40;;
77701;SDS011;66868;42.708;23.404;2023-05-10T02:12:34;5.65;;;5.32;;
77701;SDS011;66868;42.708;23.404;2023-05-10T02:15:01;6.40;;;5.97;;
77701;SDS011;66868;42.708;23.404;2023-05-10T02:17:28;5.35;;;5.05;;
77701;SDS011;66868;42.708;23.404;2023-05-10T02:19:56;4.90;;;4.68;;
77701;SDS011;66868;42.708;23.404;2023-05-10T02:22:24;5.53;;;5.05;;
77701;SDS011;66868;42.708;23.404;2023-05-10T02:24:51;5.68;;;5.38;;
77701;SDS011;66868;42.708;23.404;2023-05-10T02:27:18;5.07;;;4.88;;
77701;SDS011;66868;42.708;23.404;2023-05-10T02:29:45;4.97;;;4.78;;
77701;SDS011;66868;42.708;23.404;2023-05-10T02:32:11;5.47;;;5.18;;
77701;SDS011;66868;42.708;23.404;2023-05-10T02:34:38;4.78;;;4.50;;
77701;SDS011;66868;42.708;23.404;2023-05-10T02:37:04;5.53;;;4.28;;
77701;SDS011;66868;42.708;23.404;2023-05-10T02:39:31;4.90;;;4.57;;
77701;SDS011;66868;42.708;23.404;2023-05-10T02:41:57;4.75;;;4.43;;
77701;SDS011;66868;42.708;23.404;2023-05-10T02:44:23;5.25;;;4.57;;
77701;SDS011;66868;42.708;23.404;2023-05-10T02:46:52;5.00;;;4.70;;
77701;SDS011;66868;42.708;23.404;2023-05-10T02:49:17;4.18;;;3.97;;
77701;SDS011;66868;42.708;23.404;2023-05-10T02:51:44;4.47;;;4.18;;
77701;SDS011;66868;42.708;23.404;2023-05-10T02:54:18;5.13;;;4.57;;
77701;SDS011;66868;42.708;23.404;2023-05-10T02:56:49;8.00;;;4.80;;
77701;SDS011;66868;42.708;23.404;2023-05-10T02:59:16;5.07;;;4.70;;
77701;SDS011;66868;42.708;23.404;2023-05-10T03:01:42;5.25;;;4.85;;
77701;SDS011;66868;42.708;23.404;2023-05-10T03:04:07;5.30;;;4.90;;
77701;SDS011;66868;42.708;23.404;2023-05-10T03:06:33;4.90;;;4.50;;
77701;SDS011;66868;42.708;23.404;2023-05-10T03:08:58;6.28;;;5.75;;
77701;SDS011;66868;42.708;23.404;2023-05-10T03:11:28;5.80;;;5.30;;
77701;SDS011;66868;42.708;23.404;2023-05-10T03:17:04;6.28;;;5.30;;
77701;SDS011;66868;42.708;23.404;2023-05-10T03:22:17;9.73;;;5.63;;
77701;SDS011;66868;42.708;23.404;2023-05-10T03:24:49;5.43;;;5.00;;
77701;SDS011;66868;42.708;23.404;2023-05-10T03:27:20;4.70;;;4.43;;
77701;SDS011;66868;42.708;23.404;2023-05-10T03:29:47;5.50;;;4.70;;
77701;SDS011;66868;42.708;23.404;2023-05-10T03:32:13;5.57;;;4.88;;
77701;SDS011;66868;42.708;23.404;2023-05-10T03:34:42;5.38;;;4.88;;
77701;SDS011;66868;42.708;23.404;2023-05-10T03:37:08;5.03;;;4.65;;
77701;SDS011;66868;42.708;23.404;2023-05-10T03:39:34;4.95;;;4.75;;
77701;SDS011;66868;42.708;23.404;2023-05-10T03:41:59;4.60;;;4.30;;
77701;SDS011;66868;42.708;23.404;2023-05-10T03:44:24;4.55;;;4.25;;
77701;SDS011;66868;42.708;23.404;2023-05-10T03:46:50;4.63;;;4.22;;
77701;SDS011;66868;42.708;23.404;2023-05-10T03:49:15;4.75;;;4.30;;
77701;SDS011;66868;42.708;23.404;2023-05-10T03:51:41;4.18;;;3.90;;
77701;SDS011;66868;42.708;23.404;2023-05-10T03:54:06;4.93;;;4.45;;
77701;SDS011;66868;42.708;23.404;2023-05-10T03:56:31;4.28;;;4.07;;
77701;SDS011;66868;42.708;23.404;2023-05-10T03:58:57;4.18;;;3.88;;
77701;SDS011;66868;42.708;23.404;2023-05-10T04:01:23;9.18;;;4.38;;
77701;SDS011;66868;42.708;23.404;2023-05-10T04:03:48;4.82;;;4.45;;
77701;SDS011;66868;42.708;23.404;2023-05-10T04:06:13;4.28;;;3.97;;
77701;SDS011;66868;42.708;23.404;2023-05-10T04:08:39;4.95;;;4.28;;
77701;SDS011;66868;42.708;23.404;2023-05-10T04:11:05;4.60;;;4.25;;
77701;SDS011;66868;42.708;23.404;2023-05-10T04:13:32;4.45;;;4.15;;
77701;SDS011;66868;42.708;23.404;2023-05-10T04:15:57;4.80;;;3.58;;
77701;SDS011;66868;42.708;23.404;2023-05-10T04:18:23;3.78;;;3.65;;
77701;SDS011;66868;42.708;23.404;2023-05-10T04:20:48;4.45;;;3.70;;
77701;SDS011;66868;42.708;23.404;2023-05-10T04:23:13;4.20;;;4.00;;
77701;SDS011;66868;42.708;23.404;2023-05-10T04:25:40;6.22;;;3.75;;
77701;SDS011;66868;42.708;23.404;2023-05-10T04:28:05;3.88;;;3.67;;
77701;SDS011;66868;42.708;23.404;2023-05-10T04:30:31;4.25;;;3.92;;
77701;SDS011;66868;42.708;23.404;2023-05-10T04:32:56;6.93;;;4.65;;
77701;SDS011;66868;42.708;23.404;2023-05-10T04:35:22;4.95;;;4.50;;
77701;SDS011;66868;42.708;23.404;2023-05-10T04:37:47;5.15;;;4.75;;
77701;SDS011;66868;42.708;23.404;2023-05-10T04:40:12;4.32;;;4.13;;
77701;SDS011;66868;42.708;23.404;2023-05-10T04:42:39;4.18;;;3.88;;
77701;SDS011;66868;42.708;23.404;2023-05-10T04:45:06;6.72;;;4.90;;
77701;SDS011;66868;42.708;23.404;2023-05-10T04:47:32;4.45;;;4.15;;
77701;SDS011;66868;42.708;23.404;2023-05-10T04:49:57;4.47;;;4.28;;
77701;SDS011;66868;42.708;23.404;2023-05-10T04:52:23;4.95;;;4.38;;
77701;SDS011;66868;42.708;23.404;2023-05-10T04:54:48;5.63;;;5.22;;
77701;SDS011;66868;42.708;23.404;2023-05-10T04:57:14;8.48;;;4.80;;
77701;SDS011;66868;42.708;23.404;2023-05-10T04:59:39;4.85;;;4.45;;
77701;SDS011;66868;42.708;23.404;2023-05-10T05:02:05;7.55;;;4.63;;
77701;SDS011;66868;42.708;23.404;2023-05-10T05:04:30;5.38;;;4.88;;
77701;SDS011;66868;42.708;23.404;2023-05-10T05:06:56;5.28;;;4.63;;
77701;SDS011;66868;42.708;23.404;2023-05-10T05:09:22;7.45;;;4.78;;
77701;SDS011;66868;42.708;23.404;2023-05-10T05:11:47;5.38;;;4.88;;
77701;SDS011;66868;42.708;23.404;2023-05-10T05:14:13;5.93;;;4.95;;
77701;SDS011;66868;42.708;23.404;2023-05-10T05:16:38;4.95;;;4.65;;
77701;SDS011;66868;42.708;23.404;2023-05-10T05:19:04;5.88;;;5.38;;
77701;SDS011;66868;42.708;23.404;2023-05-10T05:21:30;5.28;;;4.97;;
77701;SDS011;66868;42.708;23.404;2023-05-10T05:23:57;5.82;;;5.43;;
77701;SDS011;66868;42.708;23.404;2023-05-10T05:26:22;5.07;;;4.60;;
77701;SDS011;66868;42.708;23.404;2023-05-10T05:28:47;5.18;;;4.80;;
77701;SDS011;66868;42.708;23.404;2023-05-10T05:31:14;4.93;;;4.63;;
77701;SDS011;66868;42.708;23.404;2023-05-10T05:33:40;10.25;;;5.32;;
77701;SDS011;66868;42.708;23.404;2023-05-10T05:36:05;6.85;;;5.38;;
77701;SDS011;66868;42.708;23.404;2023-05-10T05:38:31;5.60;;;5.15;;
77701;SDS011;66868;42.708;23.404;2023-05-10T05:40:57;5.43;;;4.93;;
77701;SDS011;66868;42.708;23.404;2023-05-10T05:43:22;6.20;;;5.32;;
77701;SDS011;66868;42.708;23.404;2023-05-10T05:45:48;5.18;;;4.68;;
77701;SDS011;66868;42.708;23.404;2023-05-10T05:48:13;5.47;;;5.10;;
77701;SDS011;66868;42.708;23.404;2023-05-10T05:50:38;7.65;;;5.90;;
77701;SDS011;66868;42.708;23.404;2023-05-10T05:53:04;5.22;;;4.90;;
77701;SDS011;66868;42.708;23.404;2023-05-10T05:55:29;6.10;;;5.47;;
77701;SDS011;66868;42.708;23.404;2023-05-10T05:57:56;6.78;;;5.00;;
77701;SDS011;66868;42.708;23.404;2023-05-10T06:00:22;5.80;;;5.25;;
77701;SDS011;66868;42.708;23.404;2023-05-10T06:02:47;5.70;;;4.28;;
77701;SDS011;66868;42.708;23.404;2023-05-10T06:05:13;5.63;;;5.13;;
77701;SDS011;66868;42.708;23.404;2023-05-10T06:07:39;6.25;;;4.68;;
77701;SDS011;66868;42.708;23.404;2023-05-10T06:10:07;4.82;;;4.53;;
77701;SDS011;66868;42.708;23.404;2023-05-10T06:12:33;5.20;;;4.82;;
77701;SDS011;66868;42.708;23.404;2023-05-10T06:14:59;5.88;;;4.32;;
77701;SDS011;66868;42.708;23.404;2023-05-10T06:17:24;4.60;;;4.40;;
77701;SDS011;66868;42.708;23.404;2023-05-10T06:19:50;7.18;;;4.45;;
77701;SDS011;66868;42.708;23.404;2023-05-10T06:22:15;5.05;;;4.65;;
77701;SDS011;66868;42.708;23.404;2023-05-10T06:24:41;5.10;;;4.47;;
77701;SDS011;66868;42.708;23.404;2023-05-10T06:27:06;7.03;;;4.45;;
77701;SDS011;66868;42.708;23.404;2023-05-10T06:29:32;7.10;;;4.80;;
77701;SDS011;66868;42.708;23.404;2023-05-10T06:31:57;7.85;;;4.93;;
77701;SDS011;66868;42.708;23.404;2023-05-10T06:34:23;5.90;;;4.70;;
77701;SDS011;66868;42.708;23.404;2023-05-10T06:36:49;4.07;;;3.88;;
77701;SDS011;66868;42.708;23.404;2023-05-10T06:39:14;3.92;;;3.72;;
77701;SDS011;66868;42.708;23.404;2023-05-10T06:41:40;4.93;;;4.43;;
77701;SDS011;66868;42.708;23.404;2023-05-10T06:44:05;4.30;;;4.03;;
77701;SDS011;66868;42.708;23.404;2023-05-10T06:46:30;4.35;;;4.15;;
77701;SDS011;66868;42.708;23.404;2023-05-10T06:48:56;4.13;;;3.83;;
77701;SDS011;66868;42.708;23.404;2023-05-10T06:51:21;4.75;;;4.45;;
77701;SDS011;66868;42.708;23.404;2023-05-10T06:53:47;5.80;;;4.78;;
77701;SDS011;66868;42.708;23.404;2023-05-10T06:56:12;7.20;;;4.00;;
77701;SDS011;66868;42.708;23.404;2023-05-10T06:58:37;4.40;;;4.03;;
77701;SDS011;66868;42.708;23.404;2023-05-10T07:01:03;5.72;;;4.57;;
77701;SDS011;66868;42.708;23.404;2023-05-10T07:03:30;4.97;;;4.45;;
77701;SDS011;66868;42.708;23.404;2023-05-10T07:05:59;4.57;;;3.58;;
77701;SDS011;66868;42.708;23.404;2023-05-10T07:08:28;5.93;;;4.18;;
77701;SDS011;66868;42.708;23.404;2023-05-10T07:10:58;4.53;;;4.30;;
77701;SDS011;66868;42.708;23.404;2023-05-10T07:13:33;4.85;;;4.47;;
77701;SDS011;66868;42.708;23.404;2023-05-10T07:15:58;4.93;;;4.47;;
77701;SDS011;66868;42.708;23.404;2023-05-10T07:18:24;4.90;;;4.55;;
77701;SDS011;66868;42.708;23.404;2023-05-10T07:20:50;8.60;;;4.65;;
77701;SDS011;66868;42.708;23.404;2023-05-10T07:23:16;5.95;;;4.57;;
77701;SDS011;66868;42.708;23.404;2023-05-10T07:25:44;5.25;;;4.25;;
77701;SDS011;66868;42.708;23.404;2023-05-10T07:28:13;4.80;;;4.60;;
77701;SDS011;66868;42.708;23.404;2023-05-10T07:30:41;5.63;;;5.05;;
77701;SDS011;66868;42.708;23.404;2023-05-10T07:33:07;5.30;;;4.88;;
77701;SDS011;66868;42.708;23.404;2023-05-10T07:35:34;9.77;;;4.88;;
77701;SDS011;66868;42.708;23.404;2023-05-10T07:37:59;4.43;;;4.13;;
77701;SDS011;66868;42.708;23.404;2023-05-10T07:40:24;6.00;;;4.57;;
77701;SDS011;66868;42.708;23.404;2023-05-10T07:42:50;7.78;;;4.97;;
77701;SDS011;66868;42.708;23.404;2023-05-10T07:45:16;4.97;;;4.30;;
77701;SDS011;66868;42.708;23.404;2023-05-10T07:47:41;4.63;;;4.38;;
77701;SDS011;66868;42.708;23.404;2023-05-10T07:50:07;6.20;;;4.82;;
77701;SDS011;66868;42.708;23.404;2023-05-10T07:52:33;5.07;;;4.78;;
77701;SDS011;66868;42.708;23.404;2023-05-10T07:54:58;5.43;;;4.90;;
77701;SDS011;66868;42.708;23.404;2023-05-10T07:57:23;5.35;;;4.95;;
77701;SDS011;66868;42.708;23.404;2023-05-10T07:59:49;6.22;;;5.13;;
77701;SDS011;66868;42.708;23.404;2023-05-10T08:02:14;4.75;;;4.45;;
77701;SDS011;66868;42.708;23.404;2023-05-10T08:04:39;7.93;;;4.78;;
77701;SDS011;66868;42.708;23.404;2023-05-10T08:07:05;6.32;;;4.95;;
77701;SDS011;66868;42.708;23.404;2023-05-10T08:09:30;4.35;;;4.05;;
77701;SDS011;66868;42.708;23.404;2023-05-10T08:11:56;11.07;;;4.97;;
77701;SDS011;66868;42.708;23.404;2023-05-10T08:14:21;6.97;;;5.30;;
77701;SDS011;66868;42.708;23.404;2023-05-10T08:16:47;6.13;;;5.63;;
77701;SDS011;66868;42.708;23.404;2023-05-10T08:19:12;5.70;;;5.30;;
77701;SDS011;66868;42.708;23.404;2023-05-10T08:21:37;5.32;;;4.82;;
77701;SDS011;66868;42.708;23.404;2023-05-10T08:24:03;5.75;;;5.18;;
77701;SDS011;66868;42.708;23.404;2023-05-10T08:26:29;5.43;;;5.03;;
77701;SDS011;66868;42.708;23.404;2023-05-10T08:28:54;4.90;;;4.07;;
77701;SDS011;66868;42.708;23.404;2023-05-10T08:31:20;5.10;;;4.85;;
77701;SDS011;66868;42.708;23.404;2023-05-10T08:33:45;5.35;;;4.85;;
77701;SDS011;66868;42.708;23.404;2023-05-10T08:36:10;8.45;;;5.72;;
77701;SDS011;66868;42.708;23.404;2023-05-10T08:38:37;6.65;;;4.45;;
77701;SDS011;66868;42.708;23.404;2023-05-10T08:41:02;5.05;;;4.85;;
77701;SDS011;66868;42.708;23.404;2023-05-10T08:43:29;5.20;;;4.80;;
77701;SDS011;66868;42.708;23.404;2023-05-10T08:45:55;5.70;;;4.85;;
77701;SDS011;66868;42.708;23.404;2023-05-10T08:48:22;5.03;;;4.72;;
77701;SDS011;66868;42.708;23.404;2023-05-10T08:50:49;5.70;;;4.68;;
77701;SDS011;66868;42.708;23.404;2023-05-10T08:53:19;5.82;;;5.18;;
77701;SDS011;66868;42.708;23.404;2023-05-10T08:55:46;9.40;;;5.38;;
77701;SDS011;66868;42.708;23.404;2023-05-10T08:58:12;5.28;;;4.97;;
77701;SDS011;66868;42.708;23.404;2023-05-10T09:00:37;4.75;;;4.32;;
77701;SDS011;66868;42.708;23.404;2023-05-10T09:03:03;5.75;;;5.25;;
77701;SDS011;66868;42.708;23.404;2023-05-10T09:05:30;5.53;;;5.03;;
77701;SDS011;66868;42.708;23.404;2023-05-10T09:07:55;6.13;;;5.18;;
77701;SDS011;66868;42.708;23.404;2023-05-10T09:10:21;6.63;;;5.55;;
77701;SDS011;66868;42.708;23.404;2023-05-10T09:12:48;7.88;;;5.43;;
77701;SDS011;66868;42.708;23.404;2023-05-10T09:15:15;6.90;;;6.20;;
77701;SDS011;66868;42.708;23.404;2023-05-10T09:17:41;7.63;;;6.95;;
77701;SDS011;66868;42.708;23.404;2023-05-10T09:20:08;6.80;;;6.40;;
77701;SDS011;66868;42.708;23.404;2023-05-10T09:22:34;9.00;;;5.82;;
77701;SDS011;66868;42.708;23.404;2023-05-10T09:27:52;5.10;;;4.90;;
77701;SDS011;66868;42.708;23.404;2023-05-10T09:30:25;6.03;;;5.65;;
77701;SDS011;66868;42.708;23.404;2023-05-10T09:32:52;6.75;;;5.90;;
77701;SDS011;66868;42.708;23.404;2023-05-10T09:35:19;6.35;;;5.85;;
77701;SDS011;66868;42.708;23.404;2023-05-10T09:37:47;5.88;;;5.43;;
77701;SDS011;66868;42.708;23.404;2023-05-10T09:40:15;9.13;;;5.97;;
77701;SDS011;66868;42.708;23.404;2023-05-10T09:42:58;7.25;;;5.43;;
77701;SDS011;66868;42.708;23.404;2023-05-10T09:45:24;9.32;;;5.43;;
77701;SDS011;66868;42.708;23.404;2023-05-10T09:47:51;8.25;;;4.78;;
77701;SDS011;66868;42.708;23.404;2023-05-10T09:50:16;10.38;;;5.97;;
77701;SDS011;66868;42.708;23.404;2023-05-10T09:52:52;7.20;;;4.70;;
77701;SDS011;66868;42.708;23.404;2023-05-10T09:55:20;6.95;;;4.88;;
77701;SDS011;66868;42.708;23.404;2023-05-10T09:57:47;5.68;;;5.25;;
77701;SDS011;66868;42.708;23.404;2023-05-10T10:00:17;5.10;;;4.82;;
77701;SDS011;66868;42.708;23.404;2023-05-10T10:02:45;5.45;;;5.07;;
77701;SDS011;66868;42.708;23.404;2023-05-10T10:05:11;5.28;;;4.60;;
77701;SDS011;66868;42.708;23.404;2023-05-10T10:07:37;9.90;;;4.60;;
77701;SDS011;66868;42.708;23.404;2023-05-10T10:10:02;5.63;;;4.90;;
77701;SDS011;66868;42.708;23.404;2023-05-10T10:12:29;4.78;;;4.30;;
77701;SDS011;66868;42.708;23.404;2023-05-10T10:14:55;7.57;;;4.88;;
77701;SDS011;66868;42.708;23.404;2023-05-10T10:17:21;5.38;;;5.00;;
77701;SDS011;66868;42.708;23.404;2023-05-10T10:19:49;8.43;;;5.00;;
77701;SDS011;66868;42.708;23.404;2023-05-10T10:22:14;5.15;;;4.75;;
77701;SDS011;66868;42.708;23.404;2023-05-10T10:24:40;6.32;;;4.82;;
77701;SDS011;66868;42.708;23.404;2023-05-10T10:27:15;4.50;;;4.10;;
77701;SDS011;66868;42.708;23.404;2023-05-10T10:35:25;6.25;;;3.72;;
77701;SDS011;66868;42.708;23.404;2023-05-10T10:37:51;6.45;;;4.22;;
77701;SDS011;66868;42.708;23.404;2023-05-10T10:40:27;7.65;;;4.28;;
77701;SDS011;66868;42.708;23.404;2023-05-10T10:42:53;4.00;;;3.60;;
77701;SDS011;66868;42.708;23.404;2023-05-10T10:45:19;4.30;;;4.07;;
77701;SDS011;66868;42.708;23.404;2023-05-10T10:47:46;8.52;;;3.78;;
77701;SDS011;66868;42.708;23.404;2023-05-10T10:50:11;10.48;;;3.92;;
77701;SDS011;66868;42.708;23.404;2023-05-10T10:52:44;4.00;;;3.80;;
77701;SDS011;66868;42.708;23.404;2023-05-10T10:55:14;3.80;;;3.60;;
77701;SDS011;66868;42.708;23.404;2023-05-10T10:57:50;6.38;;;4.35;;
77701;SDS011;66868;42.708;23.404;2023-05-10T11:02:52;4.20;;;3.90;;
77701;SDS011;66868;42.708;23.404;2023-05-10T11:07:53;5.93;;;4.30;;
77701;SDS011;66868;42.708;23.404;2023-05-10T11:10:21;4.13;;;3.53;;
77701;SDS011;66868;42.708;23.404;2023-05-10T11:13:03;8.93;;;3.72;;
77701;SDS011;66868;42.708;23.404;2023-05-10T11:15:33;4.28;;;3.88;;
77701;SDS011;66868;42.708;23.404;2023-05-10T11:18:16;3.92;;;3.67;;
77701;SDS011;66868;42.708;23.404;2023-05-10T11:20:49;3.70;;;3.50;;
77701;SDS011;66868;42.708;23.404;2023-05-10T11:23:21;3.50;;;3.30;;
77701;SDS011;66868;42.708;23.404;2023-05-10T11:25:47;4.95;;;3.22;;
77701;SDS011;66868;42.708;23.404;2023-05-10T11:28:14;3.72;;;3.47;;
77701;SDS011;66868;42.708;23.404;2023-05-10T11:30:42;4.57;;;4.18;;
77701;SDS011;66868;42.708;23.404;2023-05-10T11:33:09;4.32;;;4.05;;
77701;SDS011;66868;42.708;23.404;2023-05-10T11:35:40;5.63;;;3.95;;
77701;SDS011;66868;42.708;23.404;2023-05-10T11:38:09;3.75;;;3.50;;
77701;SDS011;66868;42.708;23.404;2023-05-10T11:40:36;3.90;;;3.50;;
77701;SDS011;66868;42.708;23.404;2023-05-10T11:43:02;3.80;;;3.55;;
77701;SDS011;66868;42.708;23.404;2023-05-10T11:45:34;3.97;;;3.70;;
77701;SDS011;66868;42.708;23.404;2023-05-10T11:48:00;5.25;;;3.83;;
77701;SDS011;66868;42.708;23.404;2023-05-10T11:50:30;5.60;;;4.30;;
77701;SDS011;66868;42.708;23.404;2023-05-10T11:52:56;3.67;;;3.38;;
77701;SDS011;66868;42.708;23.404;2023-05-10T11:55:22;4.03;;;3.72;;
77701;SDS011;66868;42.708;23.404;2023-05-10T11:57:52;5.25;;;3.72;;
77701;SDS011;66868;42.708;23.404;2023-05-10T12:00:22;4.80;;;4.45;;
77701;SDS011;66868;42.708;23.404;2023-05-10T12:02:48;5.05;;;4.70;;
77701;SDS011;66868;42.708;23.404;2023-05-10T12:05:13;4.82;;;3.85;;
77701;SDS011;66868;42.708;23.404;2023-05-10T12:07:42;4.03;;;3.75;;
77701;SDS011;66868;42.708;23.404;2023-05-10T12:10:08;5.35;;;5.03;;
77701;SDS011;66868;42.708;23.404;2023-05-10T12:12:38;5.55;;;4.57;;
77701;SDS011;66868;42.708;23.404;2023-05-10T12:15:10;4.97;;;4.03;;
77701;SDS011;66868;42.708;23.404;2023-05-10T12:17:37;9.63;;;4.80;;
77701;SDS011;66868;42.708;23.404;2023-05-10T12:20:14;7.22;;;3.72;;
77701;SDS011;66868;42.708;23.404;2023-05-10T12:22:45;4.70;;;4.13;;
77701;SDS011;66868;42.708;23.404;2023-05-10T12:25:21;4.90;;;4.60;;
77701;SDS011;66868;42.708;23.404;2023-05-10T12:27:50;6.00;;;4.78;;
77701;SDS011;66868;42.708;23.404;2023-05-10T12:30:23;5.30;;;4.82;;
77701;SDS011;66868;42.708;23.404;2023-05-10T12:32:50;5.65;;;4.32;;
77701;SDS011;66868;42.708;23.404;2023-05-10T12:35:15;4.03;;;3.83;;
77701;SDS011;66868;42.708;23.404;2023-05-10T12:37:42;7.32;;;3.92;;
77701;SDS011;66868;42.708;23.404;2023-05-10T12:40:09;7.65;;;3.78;;
77701;SDS011;66868;42.708;23.404;2023-05-10T12:42:36;4.07;;;3.67;;
77701;SDS011;66868;42.708;23.404;2023-05-10T12:45:02;4.00;;;3.40;;
77701;SDS011;66868;42.708;23.404;2023-05-10T12:47:29;7.43;;;3.75;;
77701;SDS011;66868;42.708;23.404;2023-05-10T12:49:55;3.63;;;3.38;;
77701;SDS011;66868;42.708;23.404;2023-05-10T12:52:20;4.22;;;4.03;;
77701;SDS011;66868;42.708;23.404;2023-05-10T12:54:46;6.07;;;4.18;;
77701;SDS011;66868;42.708;23.404;2023-05-10T12:57:12;4.97;;;4.50;;
77701;SDS011;66868;42.708;23.404;2023-05-10T12:59:40;5.00;;;4.15;;
77701;SDS011;66868;42.708;23.404;2023-05-10T13:02:06;4.65;;;4.25;;
77701;SDS011;66868;42.708;23.404;2023-05-10T13:04:31;7.57;;;4.20;;
77701;SDS011;66868;42.708;23.404;2023-05-10T13:06:57;4.72;;;4.43;;
77701;SDS011;66868;42.708;23.404;2023-05-10T13:09:26;4.60;;;4.40;;
77701;SDS011;66868;42.708;23.404;2023-05-10T13:11:54;7.45;;;4.95;;
77701;SDS011;66868;42.708;23.404;2023-05-10T13:14:20;5.38;;;4.50;;
77701;SDS011;66868;42.708;23.404;2023-05-10T13:16:46;4.82;;;4.57;;
77701;SDS011;66868;42.708;23.404;2023-05-10T13:19:12;5.03;;;4.72;;
77701;SDS011;66868;42.708;23.404;2023-05-10T13:21:38;4.82;;;4.47;;
77701;SDS011;66868;42.708;23.404;2023-05-10T13:24:05;4.53;;;4.25;;
77701;SDS011;66868;42.708;23.404;2023-05-10T13:26:31;5.75;;;5.25;;
77701;SDS011;66868;42.708;23.404;2023-05-10T13:28:56;5.45;;;5.15;;
77701;SDS011;66868;42.708;23.404;2023-05-10T13:31:22;5.35;;;4.63;;
77701;SDS011;66868;42.708;23.404;2023-05-10T13:33:47;9.05;;;5.18;;
77701;SDS011;66868;42.708;23.404;2023-05-10T13:36:12;5.43;;;4.85;;
77701;SDS011;66868;42.708;23.404;2023-05-10T13:38:38;4.57;;;4.28;;
77701;SDS011;66868;42.708;23.404;2023-05-10T13:41:03;4.75;;;4.43;;
77701;SDS011;66868;42.708;23.404;2023-05-10T13:43:29;4.75;;;4.30;;
77701;SDS011;66868;42.708;23.404;2023-05-10T13:45:54;8.45;;;4.18;;
77701;SDS011;66868;42.708;23.404;2023-05-10T13:48:20;8.38;;;4.85;;
77701;SDS011;66868;42.708;23.404;2023-05-10T13:50:46;6.20;;;4.47;;
77701;SDS011;66868;42.708;23.404;2023-05-10T13:53:11;6.10;;;4.90;;
77701;SDS011;66868;42.708;23.404;2023-05-10T13:58:59;10.77;;;6.20;;
77701;SDS011;66868;42.708;23.404;2023-05-10T14:01:24;5.07;;;4.75;;
77701;SDS011;66868;42.708;23.404;2023-05-10T14:03:50;5.10;;;4.40;;
77701;SDS011;66868;42.708;23.404;2023-05-10T14:06:15;4.85;;;4.55;;
77701;SDS011;66868;42.708;23.404;2023-05-10T14:08:41;7.53;;;4.78;;
77701;SDS011;66868;42.708;23.404;2023-05-10T14:11:07;4.97;;;4.53;;
77701;SDS011;66868;42.708;23.404;2023-05-10T14:13:32;5.00;;;4.15;;
77701;SDS011;66868;42.708;23.404;2023-05-10T14:15:58;5.78;;;4.18;;
77701;SDS011;66868;42.708;23.404;2023-05-10T14:18:25;4.85;;;4.45;;
77701;SDS011;66868;42.708;23.404;2023-05-10T14:20:53;5.05;;;4.65;;
77701;SDS011;66868;42.708;23.404;2023-05-10T14:23:21;5.10;;;4.80;;
77701;SDS011;66868;42.708;23.404;2023-05-10T14:25:49;4.88;;;4.47;;
77701;SDS011;66868;42.708;23.404;2023-05-10T14:28:16;5.18;;;4.80;;
77701;SDS011;66868;42.708;23.404;2023-05-10T14:30:43;5.00;;;4.63;;
77701;SDS011;66868;42.708;23.404;2023-05-10T14:33:09;5.25;;;4.68;;
77701;SDS011;66868;42.708;23.404;2023-05-10T14:35:35;7.78;;;5.13;;
77701;SDS011;66868;42.708;23.404;2023-05-10T14:38:01;12.15;;;5.30;;
77701;SDS011;66868;42.708;23.404;2023-05-10T14:40:27;9.65;;;4.97;;
77701;SDS011;66868;42.708;23.404;2023-05-10T14:42:53;4.57;;;4.28;;
77701;SDS011;66868;42.708;23.404;2023-05-10T14:45:19;5.82;;;5.20;;
77701;SDS011;66868;42.708;23.404;2023-05-10T14:47:46;5.95;;;4.75;;
77701;SDS011;66868;42.708;23.404;2023-05-10T14:50:11;18.30;;;6.13;;
77701;SDS011;66868;42.708;23.404;2023-05-10T14:55:58;7.28;;;6.20;;
77701;SDS011;66868;42.708;23.404;2023-05-10T14:58:26;5.43;;;5.03;;
77701;SDS011;66868;42.708;23.404;2023-05-10T15:00:52;7.57;;;5.20;;
77701;SDS011;66868;42.708;23.404;2023-05-10T15:03:17;10.80;;;5.32;;
77701;SDS011;66868;42.708;23.404;2023-05-10T15:05:43;4.13;;;3.92;;
77701;SDS011;66868;42.708;23.404;2023-05-10T15:08:08;8.65;;;5.82;;
77701;SDS011;66868;42.708;23.404;2023-05-10T15:10:34;8.23;;;5.97;;
77701;SDS011;66868;42.708;23.404;2023-05-10T15:13:00;11.90;;;6.55;;
77701;SDS011;66868;42.708;23.404;2023-05-10T15:15:25;9.73;;;6.45;;